sensor_id;sensor_type;location;lat;lon;timestamp;P1;durP1;ratioP1;P2;durP2;ratioP2
77535;SDS011;70085;44.530;0.094;2023-05-23T00:01:20;10.03;;;5.57;;
77535;SDS011;70085;44.530;0.094;2023-05-23T00:06:52;6.60;;;4.97;;
77535;SDS011;70085;44.530;0.094;2023-05-23T00:12:28;6.73;;;5.10;;
77535;SDS011;70085;44.530;0.094;2023-05-23T00:17:59;9.43;;;5.00;;
77535;SDS011;70085;44.530;0.094;2023-05-23T00:23:33;8.53;;;5.07;;
77535;SDS011;70085;44.530;0.094;2023-05-23T00:29:03;7.50;;;5.67;;
77535;SDS011;70085;44.530;0.094;2023-05-23T00:34:37;9.20;;;6.13;;
77535;SDS011;70085;44.530;0.094;2023-05-23T00:40:08;9.67;;;5.40;;
77535;SDS011;70085;44.530;0.094;2023-05-23T00:51:14;10.43;;;6.53;;
77535;SDS011;70085;44.530;0.094;2023-05-23T00:56:46;13.17;;;8.50;;
77535;SDS011;70085;44.530;0.094;2023-05-23T01:07:51;12.80;;;6.97;;
77535;SDS011;70085;44.530;0.094;2023-05-23T01:13:26;9.10;;;6.30;;
77535;SDS011;70085;44.530;0.094;2023-05-23T01:19:06;7.83;;;5.50;;
77535;SDS011;70085;44.530;0.094;2023-05-23T01:24:37;9.90;;;6.33;;
77535;SDS011;70085;44.530;0.094;2023-05-23T01:30:05;10.77;;;6.50;;
77535;SDS011;70085;44.530;0.094;2023-05-23T01:35:38;8.30;;;6.10;;
77535;SDS011;70085;44.530;0.094;2023-05-23T01:41:11;9.57;;;5.67;;
77535;SDS011;70085;44.530;0.094;2023-05-23T01:46:45;9.20;;;5.30;;
77535;SDS011;70085;44.530;0.094;2023-05-23T01:52:18;10.97;;;5.97;;
77535;SDS011;70085;44.530;0.094;2023-05-23T01:57:56;7.77;;;5.33;;
77535;SDS011;70085;44.530;0.094;2023-05-23T02:03:25;8.37;;;4.80;;
77535;SDS011;70085;44.530;0.094;2023-05-23T02:09:05;12.13;;;8.10;;
77535;SDS011;70085;44.530;0.094;2023-05-23T02:14:32;13.13;;;8.43;;
77535;SDS011;70085;44.530;0.094;2023-05-23T02:20:06;10.60;;;6.50;;
77535;SDS011;70085;44.530;0.094;2023-05-23T02:25:38;10.40;;;6.73;;
77535;SDS011;70085;44.530;0.094;2023-05-23T02:31:11;9.60;;;6.77;;
77535;SDS011;70085;44.530;0.094;2023-05-23T02:36:56;13.07;;;8.40;;
77535;SDS011;70085;44.530;0.094;2023-05-23T02:42:16;11.77;;;7.17;;
77535;SDS011;70085;44.530;0.094;2023-05-23T02:47:56;12.53;;;8.87;;
77535;SDS011;70085;44.530;0.094;2023-05-23T02:53:23;12.60;;;8.03;;
77535;SDS011;70085;44.530;0.094;2023-05-23T02:58:56;13.67;;;8.07;;
77535;SDS011;70085;44.530;0.094;2023-05-23T03:04:29;12.00;;;7.87;;
77535;SDS011;70085;44.530;0.094;2023-05-23T03:10:01;13.83;;;8.27;;
77535;SDS011;70085;44.530;0.094;2023-05-23T03:15:33;13.73;;;8.47;;
77535;SDS011;70085;44.530;0.094;2023-05-23T03:21:09;12.60;;;8.20;;
77535;SDS011;70085;44.530;0.094;2023-05-23T03:26:41;13.73;;;8.63;;
77535;SDS011;70085;44.530;0.094;2023-05-23T03:32:17;11.47;;;7.37;;
77535;SDS011;70085;44.530;0.094;2023-05-23T03:37:47;12.47;;;8.13;;
77535;SDS011;70085;44.530;0.094;2023-05-23T03:43:21;9.97;;;7.20;;
77535;SDS011;70085;44.530;0.094;2023-05-23T03:48:54;12.40;;;8.77;;
77535;SDS011;70085;44.530;0.094;2023-05-23T03:54:28;12.17;;;8.10;;
77535;SDS011;70085;44.530;0.094;2023-05-23T04:05:34;16.27;;;10.13;;
77535;SDS011;70085;44.530;0.094;2023-05-23T04:11:06;13.83;;;9.63;;
77535;SDS011;70085;44.530;0.094;2023-05-23T04:16:40;14.47;;;8.70;;
77535;SDS011;70085;44.530;0.094;2023-05-23T04:27:46;18.27;;;11.10;;
77535;SDS011;70085;44.530;0.094;2023-05-23T04:38:49;23.67;;;13.13;;
77535;SDS011;70085;44.530;0.094;2023-05-23T04:44:29;33.00;;;15.83;;
77535;SDS011;70085;44.530;0.094;2023-05-23T04:49:56;16.90;;;11.07;;
77535;SDS011;70085;44.530;0.094;2023-05-23T04:55:30;20.00;;;11.63;;
77535;SDS011;70085;44.530;0.094;2023-05-23T05:01:05;22.83;;;12.47;;
77535;SDS011;70085;44.530;0.094;2023-05-23T05:17:41;16.27;;;11.53;;
77535;SDS011;70085;44.530;0.094;2023-05-23T05:23:18;16.43;;;10.57;;
77535;SDS011;70085;44.530;0.094;2023-05-23T05:28:46;13.43;;;10.13;;
77535;SDS011;70085;44.530;0.094;2023-05-23T05:34:22;17.27;;;10.60;;
77535;SDS011;70085;44.530;0.094;2023-05-23T05:39:53;19.63;;;11.17;;
77535;SDS011;70085;44.530;0.094;2023-05-23T05:45:30;15.57;;;10.27;;
77535;SDS011;70085;44.530;0.094;2023-05-23T05:51:00;16.80;;;10.77;;
77535;SDS011;70085;44.530;0.094;2023-05-23T05:56:32;12.83;;;10.30;;
77535;SDS011;70085;44.530;0.094;2023-05-23T06:02:05;21.90;;;11.50;;
77535;SDS011;70085;44.530;0.094;2023-05-23T06:07:38;15.27;;;10.97;;
77535;SDS011;70085;44.530;0.094;2023-05-23T06:13:13;15.90;;;10.30;;
77535;SDS011;70085;44.530;0.094;2023-05-23T06:24:16;16.37;;;11.10;;
77535;SDS011;70085;44.530;0.094;2023-05-23T06:35:29;15.10;;;10.07;;
77535;SDS011;70085;44.530;0.094;2023-05-23T06:40:55;15.53;;;10.63;;
77535;SDS011;70085;44.530;0.094;2023-05-23T06:46:27;15.50;;;11.50;;
77535;SDS011;70085;44.530;0.094;2023-05-23T06:52:01;16.27;;;9.83;;
77535;SDS011;70085;44.530;0.094;2023-05-23T06:57:31;16.97;;;11.43;;
77535;SDS011;70085;44.530;0.094;2023-05-23T07:03:06;15.83;;;11.07;;
77535;SDS011;70085;44.530;0.094;2023-05-23T07:08:38;15.77;;;10.60;;
77535;SDS011;70085;44.530;0.094;2023-05-23T07:25:15;19.47;;;9.87;;
77535;SDS011;70085;44.530;0.094;2023-05-23T07:30:48;14.87;;;9.27;;
77535;SDS011;70085;44.530;0.094;2023-05-23T07:36:23;15.23;;;9.73;;
77535;SDS011;70085;44.530;0.094;2023-05-23T07:41:54;13.83;;;8.60;;
77535;SDS011;70085;44.530;0.094;2023-05-23T07:47:28;11.23;;;7.57;;
77535;SDS011;70085;44.530;0.094;2023-05-23T07:53:00;12.03;;;7.73;;
77535;SDS011;70085;44.530;0.094;2023-05-23T07:58:33;10.87;;;8.07;;
77535;SDS011;70085;44.530;0.094;2023-05-23T08:04:07;10.17;;;7.20;;
77535;SDS011;70085;44.530;0.094;2023-05-23T08:15:14;11.67;;;7.37;;
77535;SDS011;70085;44.530;0.094;2023-05-23T08:20:46;11.40;;;8.37;;
77535;SDS011;70085;44.530;0.094;2023-05-23T08:31:54;10.53;;;8.07;;
77535;SDS011;70085;44.530;0.094;2023-05-23T08:37:24;10.30;;;7.23;;
77535;SDS011;70085;44.530;0.094;2023-05-23T08:43:01;14.17;;;8.73;;
77535;SDS011;70085;44.530;0.094;2023-05-23T08:48:36;11.73;;;8.33;;
77535;SDS011;70085;44.530;0.094;2023-05-23T08:54:08;11.77;;;8.13;;
77535;SDS011;70085;44.530;0.094;2023-05-23T08:59:36;10.87;;;7.60;;
77535;SDS011;70085;44.530;0.094;2023-05-23T09:05:14;9.93;;;8.03;;
77535;SDS011;70085;44.530;0.094;2023-05-23T09:10:50;10.80;;;8.17;;
77535;SDS011;70085;44.530;0.094;2023-05-23T09:16:17;9.47;;;7.70;;
77535;SDS011;70085;44.530;0.094;2023-05-23T09:27:20;11.67;;;7.60;;
77535;SDS011;70085;44.530;0.094;2023-05-23T09:32:57;12.43;;;8.07;;
77535;SDS011;70085;44.530;0.094;2023-05-23T09:38:27;9.30;;;7.93;;
77535;SDS011;70085;44.530;0.094;2023-05-23T09:44:04;12.53;;;8.00;;
77535;SDS011;70085;44.530;0.094;2023-05-23T09:49:33;10.60;;;7.23;;
77535;SDS011;70085;44.530;0.094;2023-05-23T09:55:06;12.87;;;8.57;;
77535;SDS011;70085;44.530;0.094;2023-05-23T10:00:39;11.03;;;7.80;;
77535;SDS011;70085;44.530;0.094;2023-05-23T10:06:13;12.73;;;7.80;;
77535;SDS011;70085;44.530;0.094;2023-05-23T10:17:17;10.50;;;7.03;;
77535;SDS011;70085;44.530;0.094;2023-05-23T10:28:22;7.80;;;6.13;;
77535;SDS011;70085;44.530;0.094;2023-05-23T10:33:57;12.53;;;7.50;;
77535;SDS011;70085;44.530;0.094;2023-05-23T10:50:36;9.77;;;6.90;;
77535;SDS011;70085;44.530;0.094;2023-05-23T10:56:09;7.90;;;5.77;;
77535;SDS011;70085;44.530;0.094;2023-05-23T11:01:41;6.90;;;3.23;;
77535;SDS011;70085;44.530;0.094;2023-05-23T11:12:46;6.87;;;3.90;;
77535;SDS011;70085;44.530;0.094;2023-05-23T11:18:21;9.73;;;5.10;;
77535;SDS011;70085;44.530;0.094;2023-05-23T11:23:54;8.30;;;4.40;;
77535;SDS011;70085;44.530;0.094;2023-05-23T11:29:27;6.03;;;4.37;;
77535;SDS011;70085;44.530;0.094;2023-05-23T11:35:09;4.60;;;3.27;;
77535;SDS011;70085;44.530;0.094;2023-05-23T11:40:33;6.27;;;3.33;;
77535;SDS011;70085;44.530;0.094;2023-05-23T11:46:07;9.63;;;4.00;;
77535;SDS011;70085;44.530;0.094;2023-05-23T11:51:36;4.60;;;3.50;;
77535;SDS011;70085;44.530;0.094;2023-05-23T11:57:16;8.40;;;3.80;;
77535;SDS011;70085;44.530;0.094;2023-05-23T12:02:50;6.00;;;3.97;;
77535;SDS011;70085;44.530;0.094;2023-05-23T12:08:13;5.87;;;4.23;;
77535;SDS011;70085;44.530;0.094;2023-05-23T12:13:46;5.87;;;3.77;;
77535;SDS011;70085;44.530;0.094;2023-05-23T12:19:20;5.87;;;4.03;;
77535;SDS011;70085;44.530;0.094;2023-05-23T12:24:53;5.37;;;3.50;;
77535;SDS011;70085;44.530;0.094;2023-05-23T12:35:59;5.97;;;3.60;;
77535;SDS011;70085;44.530;0.094;2023-05-23T12:41:33;10.27;;;4.20;;
77535;SDS011;70085;44.530;0.094;2023-05-23T12:47:06;9.00;;;4.17;;
77535;SDS011;70085;44.530;0.094;2023-05-23T12:52:39;6.50;;;4.10;;
77535;SDS011;70085;44.530;0.094;2023-05-23T12:58:11;10.37;;;4.43;;
77535;SDS011;70085;44.530;0.094;2023-05-23T13:09:18;5.57;;;3.90;;
77535;SDS011;70085;44.530;0.094;2023-05-23T13:14:51;5.47;;;4.30;;
77535;SDS011;70085;44.530;0.094;2023-05-23T13:20:23;4.37;;;3.10;;
77535;SDS011;70085;44.530;0.094;2023-05-23T13:37:01;5.30;;;3.40;;
77535;SDS011;70085;44.530;0.094;2023-05-23T13:42:44;4.13;;;3.10;;
77535;SDS011;70085;44.530;0.094;2023-05-23T13:48:08;4.37;;;2.90;;
77535;SDS011;70085;44.530;0.094;2023-05-23T13:53:56;3.80;;;2.63;;
77535;SDS011;70085;44.530;0.094;2023-05-23T13:59:20;5.20;;;3.40;;
77535;SDS011;70085;44.530;0.094;2023-05-23T14:04:50;7.80;;;3.33;;
77535;SDS011;70085;44.530;0.094;2023-05-23T14:21:27;8.07;;;5.60;;
77535;SDS011;70085;44.530;0.094;2023-05-23T14:26:58;7.43;;;5.33;;
77535;SDS011;70085;44.530;0.094;2023-05-23T14:38:02;9.40;;;6.47;;
77535;SDS011;70085;44.530;0.094;2023-05-23T14:43:34;13.00;;;7.13;;
77535;SDS011;70085;44.530;0.094;2023-05-23T14:49:07;8.40;;;6.20;;
77535;SDS011;70085;44.530;0.094;2023-05-23T14:54:42;11.13;;;5.90;;
77535;SDS011;70085;44.530;0.094;2023-05-23T15:00:15;7.53;;;5.13;;
77535;SDS011;70085;44.530;0.094;2023-05-23T15:05:48;19.53;;;5.93;;
77535;SDS011;70085;44.530;0.094;2023-05-23T15:11:25;7.60;;;6.37;;
77535;SDS011;70085;44.530;0.094;2023-05-23T15:16:51;11.43;;;6.50;;
77535;SDS011;70085;44.530;0.094;2023-05-23T15:22:23;9.63;;;6.97;;
77535;SDS011;70085;44.530;0.094;2023-05-23T15:27:56;13.90;;;8.07;;
77535;SDS011;70085;44.530;0.094;2023-05-23T15:33:27;10.93;;;8.13;;
77535;SDS011;70085;44.530;0.094;2023-05-23T15:44:35;11.57;;;8.97;;
77535;SDS011;70085;44.530;0.094;2023-05-23T15:50:07;14.23;;;9.47;;
77535;SDS011;70085;44.530;0.094;2023-05-23T15:55:40;12.10;;;9.20;;
77535;SDS011;70085;44.530;0.094;2023-05-23T16:01:13;15.47;;;9.03;;
77535;SDS011;70085;44.530;0.094;2023-05-23T16:06:46;14.00;;;7.83;;
77535;SDS011;70085;44.530;0.094;2023-05-23T16:12:20;11.03;;;8.43;;
77535;SDS011;70085;44.530;0.094;2023-05-23T16:17:53;12.17;;;8.53;;
77535;SDS011;70085;44.530;0.094;2023-05-23T16:23:25;13.87;;;8.70;;
77535;SDS011;70085;44.530;0.094;2023-05-23T16:28:55;16.10;;;8.97;;
77535;SDS011;70085;44.530;0.094;2023-05-23T16:34:27;13.93;;;8.73;;
77535;SDS011;70085;44.530;0.094;2023-05-23T16:40:02;14.63;;;8.97;;
77535;SDS011;70085;44.530;0.094;2023-05-23T16:45:35;15.40;;;9.47;;
77535;SDS011;70085;44.530;0.094;2023-05-23T16:51:07;14.83;;;8.43;;
77535;SDS011;70085;44.530;0.094;2023-05-23T16:56:40;13.63;;;9.33;;
77535;SDS011;70085;44.530;0.094;2023-05-23T17:02:11;15.17;;;9.43;;
77535;SDS011;70085;44.530;0.094;2023-05-23T17:07:43;15.07;;;8.27;;
77535;SDS011;70085;44.530;0.094;2023-05-23T17:13:15;12.53;;;8.73;;
77535;SDS011;70085;44.530;0.094;2023-05-23T17:18:48;14.70;;;9.17;;
77535;SDS011;70085;44.530;0.094;2023-05-23T17:24:21;12.80;;;8.40;;
77535;SDS011;70085;44.530;0.094;2023-05-23T17:29:53;16.17;;;8.57;;
77535;SDS011;70085;44.530;0.094;2023-05-23T17:35:26;10.93;;;8.43;;
77535;SDS011;70085;44.530;0.094;2023-05-23T17:40:59;14.00;;;8.40;;
77535;SDS011;70085;44.530;0.094;2023-05-23T17:46:32;12.43;;;9.10;;
77535;SDS011;70085;44.530;0.094;2023-05-23T17:52:07;13.07;;;7.63;;
77535;SDS011;70085;44.530;0.094;2023-05-23T17:57:38;15.60;;;9.53;;
77535;SDS011;70085;44.530;0.094;2023-05-23T18:03:11;12.07;;;7.87;;
77535;SDS011;70085;44.530;0.094;2023-05-23T18:08:44;14.67;;;8.30;;
77535;SDS011;70085;44.530;0.094;2023-05-23T18:14:17;12.30;;;8.23;;
77535;SDS011;70085;44.530;0.094;2023-05-23T18:19:51;11.23;;;8.43;;
77535;SDS011;70085;44.530;0.094;2023-05-23T18:25:26;11.97;;;8.10;;
77535;SDS011;70085;44.530;0.094;2023-05-23T18:30:56;13.47;;;8.10;;
77535;SDS011;70085;44.530;0.094;2023-05-23T18:36:28;14.73;;;8.30;;
77535;SDS011;70085;44.530;0.094;2023-05-23T18:42:01;14.73;;;7.80;;
77535;SDS011;70085;44.530;0.094;2023-05-23T18:47:34;14.63;;;8.93;;
77535;SDS011;70085;44.530;0.094;2023-05-23T18:53:07;17.30;;;8.93;;
77535;SDS011;70085;44.530;0.094;2023-05-23T18:58:38;19.70;;;9.60;;
77535;SDS011;70085;44.530;0.094;2023-05-23T19:04:12;15.00;;;9.43;;
77535;SDS011;70085;44.530;0.094;2023-05-23T19:09:44;15.50;;;8.73;;
77535;SDS011;70085;44.530;0.094;2023-05-23T19:15:15;15.97;;;9.33;;
77535;SDS011;70085;44.530;0.094;2023-05-23T19:20:50;17.70;;;10.03;;
77535;SDS011;70085;44.530;0.094;2023-05-23T19:26:20;13.93;;;9.23;;
77535;SDS011;70085;44.530;0.094;2023-05-23T19:31:53;13.10;;;8.53;;
77535;SDS011;70085;44.530;0.094;2023-05-23T19:37:25;15.60;;;10.07;;
77535;SDS011;70085;44.530;0.094;2023-05-23T19:42:57;15.97;;;9.90;;
77535;SDS011;70085;44.530;0.094;2023-05-23T19:48:30;14.10;;;9.47;;
77535;SDS011;70085;44.530;0.094;2023-05-23T19:54:02;14.90;;;9.73;;
77535;SDS011;70085;44.530;0.094;2023-05-23T19:59:35;14.53;;;9.97;;
77535;SDS011;70085;44.530;0.094;2023-05-23T20:05:09;15.03;;;9.70;;
77535;SDS011;70085;44.530;0.094;2023-05-23T20:10:43;16.13;;;10.47;;
77535;SDS011;70085;44.530;0.094;2023-05-23T20:16:16;16.20;;;11.03;;
77535;SDS011;70085;44.530;0.094;2023-05-23T20:21:49;16.30;;;10.37;;
77535;SDS011;70085;44.530;0.094;2023-05-23T20:27:22;16.73;;;9.53;;
77535;SDS011;70085;44.530;0.094;2023-05-23T20:32:56;16.47;;;10.90;;
77535;SDS011;70085;44.530;0.094;2023-05-23T20:38:30;19.33;;;10.70;;
77535;SDS011;70085;44.530;0.094;2023-05-23T20:44:01;16.97;;;9.83;;
77535;SDS011;70085;44.530;0.094;2023-05-23T20:49:34;15.17;;;10.73;;
77535;SDS011;70085;44.530;0.094;2023-05-23T20:55:05;14.83;;;10.50;;
77535;SDS011;70085;44.530;0.094;2023-05-23T21:00:40;18.77;;;10.93;;
77535;SDS011;70085;44.530;0.094;2023-05-23T21:06:13;16.40;;;11.13;;
77535;SDS011;70085;44.530;0.094;2023-05-23T21:11:46;21.47;;;12.70;;
77535;SDS011;70085;44.530;0.094;2023-05-23T21:17:19;20.63;;;12.73;;
77535;SDS011;70085;44.530;0.094;2023-05-23T21:22:53;20.47;;;11.97;;
77535;SDS011;70085;44.530;0.094;2023-05-23T21:28:26;21.10;;;13.43;;
77535;SDS011;70085;44.530;0.094;2023-05-23T21:34:03;16.77;;;12.07;;
77535;SDS011;70085;44.530;0.094;2023-05-23T21:39:33;22.73;;;11.63;;
77535;SDS011;70085;44.530;0.094;2023-05-23T21:45:06;18.80;;;12.40;;
77535;SDS011;70085;44.530;0.094;2023-05-23T21:50:38;16.93;;;11.83;;
77535;SDS011;70085;44.530;0.094;2023-05-23T22:07:18;22.67;;;12.03;;
77535;SDS011;70085;44.530;0.094;2023-05-23T22:12:49;22.40;;;13.03;;
77535;SDS011;70085;44.530;0.094;2023-05-23T22:18:25;23.90;;;12.97;;
77535;SDS011;70085;44.530;0.094;2023-05-23T22:23:56;19.83;;;12.37;;
77535;SDS011;70085;44.530;0.094;2023-05-23T22:29:27;18.70;;;12.03;;
77535;SDS011;70085;44.530;0.094;2023-05-23T22:35:01;25.87;;;12.83;;
77535;SDS011;70085;44.530;0.094;2023-05-23T22:46:06;18.33;;;10.90;;
77535;SDS011;70085;44.530;0.094;2023-05-23T22:51:39;25.77;;;13.77;;
77535;SDS011;70085;44.530;0.094;2023-05-23T22:57:13;18.57;;;11.10;;
77535;SDS011;70085;44.530;0.094;2023-05-23T23:02:45;21.00;;;13.30;;
77535;SDS011;70085;44.530;0.094;2023-05-23T23:08:19;29.53;;;16.07;;
77535;SDS011;70085;44.530;0.094;2023-05-23T23:13:51;24.73;;;14.73;;
77535;SDS011;70085;44.530;0.094;2023-05-23T23:19:25;21.57;;;13.43;;
77535;SDS011;70085;44.530;0.094;2023-05-23T23:24:57;22.33;;;13.90;;
77535;SDS011;70085;44.530;0.094;2023-05-23T23:30:30;20.87;;;13.87;;
77535;SDS011;70085;44.530;0.094;2023-05-23T23:36:03;20.97;;;13.60;;
77535;SDS011;70085;44.530;0.094;2023-05-23T23:41:37;22.47;;;13.27;;
77535;SDS011;70085;44.530;0.094;2023-05-23T23:47:12;22.33;;;12.43;;
77535;SDS011;70085;44.530;0.094;2023-05-23T23:52:45;21.63;;;12.83;;
77535;SDS011;70085;44.530;0.094;2023-05-23T23:58:18;22.13;;;13.17;;
